createdAt,value
2023-04-28T00:00:14.034Z,88.09
2023-04-28T00:02:40.513Z,89.26
2023-04-28T00:05:07.494Z,89.04
2023-04-28T00:07:34.097Z,89.96
2023-04-28T00:10:00.697Z,90.06
2023-04-28T00:12:27.166Z,90.88
2023-04-28T00:14:53.658Z,89.50
2023-04-28T00:17:20.292Z,90.30
2023-04-28T00:19:47.018Z,90.67
2023-04-28T00:22:13.504Z,92.26
2023-04-28T00:24:41.779Z,91.73
2023-04-28T00:27:08.283Z,93.57
2023-04-28T00:29:34.750Z,91.89
2023-04-28T00:32:01.686Z,91.09
2023-04-28T00:34:29.952Z,90.41
2023-04-28T00:36:57.543Z,90.37
2023-04-28T00:39:24.077Z,88.82
2023-04-28T00:41:50.562Z,88.66
2023-04-28T00:44:17.401Z,89.02
2023-04-28T00:46:44.197Z,89.57
2023-04-28T00:49:11.076Z,89.80
2023-04-28T00:51:37.559Z,89.57
2023-04-28T00:54:05.897Z,90.65
2023-04-28T00:56:32.621Z,94.39
2023-04-28T00:58:59.685Z,97.59
2023-04-28T01:01:26.175Z,98.56
2023-04-28T01:03:53.237Z,99.67
2023-04-28T01:10:08.625Z,100.00
2023-04-28T01:12:35.246Z,100.00
2023-04-28T01:15:02.226Z,99.18
2023-04-28T01:17:28.858Z,97.18
2023-04-28T01:19:55.864Z,96.27
2023-04-28T01:22:22.316Z,94.97
2023-04-28T01:24:48.765Z,96.49
2023-04-28T01:27:15.446Z,96.20
2023-04-28T01:29:42.197Z,96.76
2023-04-28T01:32:08.827Z,97.29
2023-04-28T01:34:35.306Z,98.26
2023-04-28T01:37:01.798Z,98.76
2023-04-28T01:39:28.240Z,97.52
2023-04-28T01:41:54.650Z,100.00
2023-04-28T01:44:21.132Z,100.00
2023-04-28T01:46:47.591Z,100.00
2023-04-28T01:49:14.019Z,100.00
2023-04-28T01:51:41.662Z,100.00
2023-04-28T01:54:08.191Z,100.00
2023-04-28T01:56:34.615Z,100.00
2023-04-28T01:59:01.049Z,100.00
2023-04-28T02:01:27.558Z,100.00
2023-04-28T02:03:55.453Z,100.00
2023-04-28T02:06:22.335Z,100.00
2023-04-28T02:08:48.799Z,100.00
2023-04-28T02:11:15.336Z,100.00
2023-04-28T02:13:41.751Z,100.00
2023-04-28T02:16:08.300Z,100.00
2023-04-28T02:18:36.281Z,100.00
2023-04-28T02:21:13.401Z,100.00
2023-04-28T02:23:40.440Z,100.00
2023-04-28T02:26:07.051Z,100.00
2023-04-28T02:28:33.570Z,100.00
2023-04-28T02:31:05.195Z,100.00
2023-04-28T02:33:32.380Z,100.00
2023-04-28T02:36:03.162Z,100.00
2023-04-28T02:38:29.874Z,100.00
2023-04-28T02:41:00.901Z,100.00
2023-04-28T02:43:28.689Z,100.00
2023-04-28T02:45:55.588Z,100.00
2023-04-28T02:48:22.110Z,100.00
2023-04-28T02:50:48.612Z,100.00
2023-04-28T02:53:15.057Z,100.00
2023-04-28T02:55:41.558Z,100.00
2023-04-28T02:58:08.075Z,100.00
2023-04-28T03:00:34.568Z,100.00
2023-04-28T03:03:02.012Z,100.00
2023-04-28T03:05:28.737Z,100.00
2023-04-28T03:07:55.316Z,100.00
2023-04-28T03:10:21.864Z,100.00
2023-04-28T03:12:48.385Z,100.00
2023-04-28T03:15:14.909Z,100.00
2023-04-28T03:17:43.013Z,100.00
2023-04-28T03:20:10.661Z,100.00
2023-04-28T03:22:37.205Z,100.00
2023-04-28T03:25:03.776Z,100.00
2023-04-28T03:27:30.288Z,100.00
2023-04-28T03:29:56.839Z,100.00
2023-04-28T03:32:23.371Z,100.00
2023-04-28T03:34:49.847Z,100.00
2023-04-28T03:37:16.334Z,100.00
2023-04-28T03:39:42.820Z,100.00
2023-04-28T03:42:09.425Z,100.00
2023-04-28T03:44:36.158Z,100.00
2023-04-28T03:47:02.653Z,100.00
2023-04-28T03:49:29.118Z,100.00
2023-04-28T03:51:55.535Z,100.00
2023-04-28T03:54:21.972Z,100.00
2023-04-28T03:56:48.472Z,100.00
2023-04-28T03:59:15.096Z,100.00
2023-04-28T04:01:41.495Z,100.00
2023-04-28T04:04:08.162Z,100.00
2023-04-28T04:06:34.837Z,100.00
2023-04-28T04:09:01.703Z,100.00
2023-04-28T04:11:28.317Z,100.00
2023-04-28T04:13:54.764Z,100.00
2023-04-28T04:16:22.807Z,100.00
2023-04-28T04:18:49.482Z,100.00
2023-04-28T04:21:15.938Z,100.00
2023-04-28T04:23:42.382Z,100.00
2023-04-28T04:26:09.114Z,100.00
2023-04-28T04:28:35.739Z,100.00
2023-04-28T04:31:03.385Z,100.00
2023-04-28T04:33:29.936Z,100.00
2023-04-28T04:35:56.768Z,100.00
2023-04-28T04:38:23.207Z,100.00
2023-04-28T04:40:49.666Z,100.00
2023-04-28T04:43:16.202Z,100.00
2023-04-28T04:45:42.754Z,100.00
2023-04-28T04:48:09.636Z,100.00
2023-04-28T04:50:36.118Z,100.00
2023-04-28T04:53:02.632Z,100.00
2023-04-28T04:55:29.194Z,100.00
2023-04-28T04:57:55.888Z,100.00
2023-04-28T05:00:22.380Z,100.00
2023-04-28T05:02:48.971Z,100.00
2023-04-28T05:05:21.099Z,100.00
2023-04-28T05:07:48.244Z,100.00
2023-04-28T05:10:14.798Z,100.00
2023-04-28T05:12:41.477Z,100.00
2023-04-28T05:15:08.400Z,100.00
2023-04-28T05:17:35.225Z,100.00
2023-04-28T05:20:01.712Z,100.00
2023-04-28T05:22:28.568Z,100.00
2023-04-28T05:24:55.077Z,100.00
2023-04-28T05:27:21.885Z,100.00
2023-04-28T05:29:48.450Z,100.00
2023-04-28T05:32:15.192Z,100.00
2023-04-28T05:34:41.709Z,100.00
2023-04-28T05:37:08.224Z,100.00
2023-04-28T05:39:34.690Z,100.00
2023-04-28T05:42:01.214Z,100.00
2023-04-28T05:44:27.654Z,99.65
2023-04-28T05:46:54.281Z,96.79
2023-04-28T05:49:20.896Z,96.66
2023-04-28T05:51:47.400Z,97.84
2023-04-28T05:54:14.217Z,95.92
2023-04-28T05:56:41.037Z,91.75
2023-04-28T05:59:07.677Z,90.26
2023-04-28T06:01:34.184Z,87.55
2023-04-28T06:04:01.121Z,85.02
2023-04-28T06:06:28.033Z,84.23
2023-04-28T06:08:54.658Z,80.40
2023-04-28T06:11:22.554Z,77.83
2023-04-28T06:13:52.013Z,77.73
2023-04-28T06:16:18.950Z,76.38
2023-04-28T06:18:47.344Z,76.11
2023-04-28T06:21:16.839Z,74.06
2023-04-28T06:23:43.298Z,73.81
2023-04-28T06:26:09.828Z,73.24
2023-04-28T06:28:36.476Z,71.73
2023-04-28T06:31:03.018Z,70.74
2023-04-28T06:33:29.565Z,70.62
2023-04-28T06:35:56.253Z,68.86
2023-04-28T06:38:22.752Z,68.51
2023-04-28T06:40:49.315Z,68.66
2023-04-28T06:43:15.959Z,68.80
2023-04-28T06:45:42.748Z,68.67
2023-04-28T06:48:10.356Z,68.05
2023-04-28T06:50:37.319Z,68.73
2023-04-28T06:53:03.881Z,67.70
2023-04-28T06:55:30.552Z,67.79
2023-04-28T06:57:57.082Z,65.81
2023-04-28T07:00:23.652Z,63.56
2023-04-28T07:02:50.270Z,61.67
2023-04-28T07:05:17.006Z,60.13
2023-04-28T07:07:43.583Z,58.11
2023-04-28T07:10:11.288Z,57.11
2023-04-28T07:12:37.795Z,56.55
2023-04-28T07:15:04.612Z,55.58
2023-04-28T07:17:31.245Z,54.77
2023-04-28T07:19:58.122Z,54.47
2023-04-28T07:22:24.719Z,52.70
2023-04-28T07:24:52.631Z,52.19
2023-04-28T07:27:19.080Z,51.48
2023-04-28T07:29:45.575Z,50.98
2023-04-28T07:32:12.191Z,51.23
2023-04-28T07:34:38.823Z,50.42
2023-04-28T07:37:05.702Z,49.74
2023-04-28T07:39:36.744Z,50.12
2023-04-28T07:42:03.706Z,50.13
2023-04-28T07:44:31.206Z,50.20
2023-04-28T07:46:59.497Z,50.22
2023-04-28T07:49:27.331Z,50.37
2023-04-28T07:51:55.623Z,50.52
2023-04-28T07:54:22.316Z,50.14
2023-04-28T07:56:48.869Z,48.94
2023-04-28T07:59:15.442Z,48.55
2023-04-28T08:01:42.982Z,47.91
2023-04-28T08:04:09.712Z,49.07
2023-04-28T08:06:36.550Z,49.63
2023-04-28T08:09:05.833Z,48.12
2023-04-28T08:11:33.465Z,46.76
2023-04-28T08:14:02.962Z,45.84
2023-04-28T08:16:30.935Z,45.38
2023-04-28T08:18:58.078Z,44.58
2023-04-28T08:21:24.831Z,43.84
2023-04-28T08:23:51.320Z,44.05
2023-04-28T08:26:17.885Z,43.71
2023-04-28T08:28:44.398Z,43.96
2023-04-28T08:31:11.076Z,44.07
2023-04-28T08:33:37.513Z,43.62
2023-04-28T08:36:05.041Z,42.42
2023-04-28T08:38:31.721Z,43.02
2023-04-28T08:40:58.208Z,43.12
2023-04-28T08:43:25.594Z,41.97
2023-04-28T08:45:52.134Z,41.17
2023-04-28T08:48:23.016Z,41.02
2023-04-28T08:50:54.645Z,40.15
2023-04-28T08:53:26.744Z,40.99
2023-04-28T08:55:59.945Z,41.09
2023-04-28T08:58:27.460Z,41.16
2023-04-28T09:00:54.577Z,40.43
2023-04-28T09:03:21.582Z,39.94
2023-04-28T09:05:49.050Z,40.47
2023-04-28T09:08:15.549Z,40.53
2023-04-28T09:10:42.405Z,39.47
2023-04-28T09:13:09.033Z,39.64
2023-04-28T09:15:37.746Z,39.38
2023-04-28T09:18:06.488Z,40.14
2023-04-28T09:20:34.806Z,40.44
2023-04-28T09:23:13.572Z,41.04
2023-04-28T09:25:40.041Z,40.00
2023-04-28T09:28:22.335Z,41.00
2023-04-28T09:30:48.964Z,40.33
2023-04-28T09:33:16.273Z,38.91
2023-04-28T09:35:45.280Z,38.38
2023-04-28T09:38:13.043Z,39.06
2023-04-28T09:40:57.332Z,39.85
2023-04-28T09:43:26.153Z,39.27
2023-04-28T09:45:53.287Z,38.29
2023-04-28T09:48:36.830Z,38.76
2023-04-28T09:51:06.118Z,39.79
2023-04-28T09:53:33.493Z,39.48
2023-04-28T09:56:02.186Z,38.80
2023-04-28T09:58:30.331Z,38.82
2023-04-28T10:00:58.798Z,38.99
2023-04-28T10:03:30.959Z,38.90
2023-04-28T10:05:59.176Z,38.93
2023-04-28T10:08:27.924Z,38.22
2023-04-28T10:10:55.526Z,38.46
2023-04-28T10:13:23.232Z,38.03
2023-04-28T10:15:51.198Z,37.36
2023-04-28T10:18:18.571Z,37.92
2023-04-28T10:20:48.081Z,37.81
2023-04-28T10:23:40.579Z,38.52
2023-04-28T10:26:12.978Z,37.64
2023-04-28T10:28:50.167Z,37.35
2023-04-28T10:31:21.172Z,36.65
2023-04-28T10:33:49.516Z,36.87
2023-04-28T10:36:49.808Z,37.01
2023-04-28T10:39:16.824Z,37.58
2023-04-28T10:41:45.484Z,37.88
2023-04-28T10:44:29.933Z,37.51
2023-04-28T10:47:09.662Z,37.87
2023-04-28T10:49:54.804Z,37.53
2023-04-28T10:52:33.150Z,37.82
2023-04-28T10:55:30.656Z,38.53
2023-04-28T10:58:15.545Z,38.26
2023-04-28T11:00:43.805Z,40.85
2023-04-28T11:03:42.467Z,41.54
2023-04-28T11:06:20.316Z,41.26
2023-04-28T11:08:46.896Z,41.64
2023-04-28T11:11:15.546Z,41.09
2023-04-28T11:13:43.197Z,41.69
2023-04-28T11:16:09.868Z,41.73
2023-04-28T11:18:56.136Z,41.88
2023-04-28T11:21:24.963Z,41.67
2023-04-28T11:23:52.366Z,41.95
2023-04-28T11:26:19.993Z,42.06
2023-04-28T11:28:55.685Z,42.85
2023-04-28T11:31:24.296Z,43.14
2023-04-28T11:33:55.750Z,43.22
2023-04-28T11:36:41.557Z,44.75
2023-04-28T11:39:10.554Z,45.23
2023-04-28T11:41:38.889Z,44.61
2023-04-28T11:44:16.761Z,44.77
2023-04-28T11:46:55.726Z,44.44
2023-04-28T11:49:32.865Z,44.02
2023-04-28T11:52:07.232Z,43.47
2023-04-28T11:54:36.462Z,43.91
2023-04-28T11:57:05.059Z,44.33
2023-04-28T11:59:35.752Z,43.29
2023-04-28T12:02:07.047Z,42.86
2023-04-28T12:04:39.404Z,42.27
2023-04-28T12:07:10.464Z,42.32
2023-04-28T12:09:39.054Z,42.53
2023-04-28T12:12:10.194Z,42.74
2023-04-28T12:14:56.384Z,42.50
2023-04-28T12:17:31.263Z,42.63
2023-04-28T12:20:00.006Z,42.64
2023-04-28T12:22:26.812Z,42.12
2023-04-28T12:25:07.792Z,42.26
2023-04-28T12:27:38.546Z,42.86
2023-04-28T12:30:25.256Z,42.17
2023-04-28T12:32:51.945Z,42.93
2023-04-28T12:35:22.212Z,42.86
2023-04-28T12:37:48.822Z,44.61
2023-04-28T12:40:15.302Z,44.29
2023-04-28T12:42:41.779Z,43.74
2023-04-28T12:45:11.078Z,43.89
2023-04-28T12:47:38.816Z,43.85
2023-04-28T12:50:08.988Z,44.74
2023-04-28T12:52:37.314Z,44.87
2023-04-28T12:55:04.492Z,44.99
2023-04-28T12:57:31.444Z,45.00
2023-04-28T12:59:57.923Z,45.28
2023-04-28T13:02:25.171Z,44.60
2023-04-28T13:04:52.959Z,44.85
2023-04-28T13:07:19.717Z,44.46
2023-04-28T13:09:47.426Z,44.74
2023-04-28T13:12:14.721Z,44.12
2023-04-28T13:14:41.328Z,44.37
2023-04-28T13:17:08.958Z,44.58
2023-04-28T13:19:35.726Z,44.70
2023-04-28T13:22:05.246Z,45.83
2023-04-28T13:24:33.437Z,45.99
2023-04-28T13:27:00.381Z,46.81
2023-04-28T13:29:26.965Z,46.93
2023-04-28T13:31:54.017Z,47.53
2023-04-28T13:34:20.704Z,47.45
2023-04-28T13:36:50.674Z,47.75
2023-04-28T13:39:20.070Z,48.73
2023-04-28T13:41:46.522Z,48.99
2023-04-28T13:44:12.956Z,49.53
2023-04-28T13:46:39.462Z,50.16
2023-04-28T13:49:05.938Z,50.17
2023-04-28T13:51:35.378Z,51.34
2023-04-28T13:54:04.656Z,50.69
2023-04-28T13:56:32.013Z,51.05
2023-04-28T13:58:58.879Z,51.25
2023-04-28T14:01:25.596Z,51.58
2023-04-28T14:03:52.518Z,52.94
2023-04-28T14:06:19.125Z,53.70
2023-04-28T14:08:45.610Z,55.37
2023-04-28T14:11:12.317Z,56.77
2023-04-28T14:13:38.756Z,57.87
2023-04-28T14:16:05.522Z,59.05
2023-04-28T14:18:33.753Z,60.96
2023-04-28T14:21:02.024Z,63.65
2023-04-28T14:23:28.841Z,62.48
2023-04-28T14:25:58.322Z,63.90
2023-04-28T14:28:24.832Z,62.67
2023-04-28T14:30:53.806Z,63.16
2023-04-28T14:33:20.235Z,61.59
2023-04-28T14:35:46.755Z,61.58
2023-04-28T14:38:13.824Z,62.25
2023-04-28T14:40:40.446Z,63.27
2023-04-28T14:43:07.368Z,62.14
2023-04-28T14:45:36.513Z,62.39
2023-04-28T14:48:03.394Z,62.49
2023-04-28T14:50:29.996Z,62.00
2023-04-28T14:52:56.489Z,61.51
2023-04-28T14:55:23.074Z,61.78
2023-04-28T14:57:49.565Z,62.39
2023-04-28T15:00:16.677Z,63.43
2023-04-28T15:02:43.258Z,65.08
2023-04-28T15:05:11.481Z,67.11
2023-04-28T15:07:38.171Z,69.31
2023-04-28T15:10:04.931Z,74.11
2023-04-28T15:12:32.101Z,78.91
2023-04-28T15:14:58.601Z,84.96
2023-04-28T15:17:25.460Z,88.22
2023-04-28T15:19:52.481Z,93.77
2023-04-28T15:22:18.969Z,100.00
2023-04-28T15:24:45.626Z,100.00
2023-04-28T15:27:12.113Z,100.00
2023-04-28T15:29:38.723Z,100.00
2023-04-28T15:32:05.486Z,100.00
2023-04-28T15:34:32.075Z,100.00
2023-04-28T15:36:58.526Z,100.00
2023-04-28T15:39:25.701Z,100.00
2023-04-28T15:41:52.970Z,100.00
2023-04-28T15:44:19.873Z,100.00
2023-04-28T15:46:46.416Z,100.00
2023-04-28T15:49:13.535Z,100.00
2023-04-28T15:51:39.971Z,100.00
2023-04-28T15:54:06.463Z,100.00
2023-04-28T15:56:33.660Z,100.00
2023-04-28T15:59:00.137Z,100.00
2023-04-28T16:01:26.601Z,100.00
2023-04-28T16:03:53.425Z,100.00
2023-04-28T16:06:20.146Z,100.00
2023-04-28T16:08:46.619Z,100.00
2023-04-28T16:11:17.748Z,100.00
2023-04-28T16:13:45.033Z,100.00
2023-04-28T16:16:12.357Z,100.00
2023-04-28T16:18:39.369Z,100.00
2023-04-28T16:21:06.481Z,100.00
2023-04-28T16:23:33.212Z,100.00
2023-04-28T16:25:59.686Z,100.00
2023-04-28T16:28:26.963Z,100.00
2023-04-28T16:30:53.485Z,100.00
2023-04-28T16:33:19.922Z,100.00
2023-04-28T16:35:54.740Z,100.00
2023-04-28T16:38:21.475Z,100.00
2023-04-28T16:40:47.947Z,100.00
2023-04-28T16:43:14.664Z,100.00
2023-04-28T16:45:41.410Z,100.00
2023-04-28T16:48:08.335Z,100.00
2023-04-28T16:50:34.895Z,100.00
2023-04-28T16:53:01.352Z,100.00
2023-04-28T16:55:27.900Z,100.00
2023-04-28T16:57:54.349Z,100.00
2023-04-28T17:00:21.251Z,100.00
2023-04-28T17:02:47.866Z,100.00
2023-04-28T17:05:14.484Z,100.00
2023-04-28T17:07:41.343Z,100.00
2023-04-28T17:10:08.345Z,100.00
2023-04-28T17:12:34.999Z,100.00
2023-04-28T17:15:01.794Z,100.00
2023-04-28T17:17:29.177Z,100.00
2023-04-28T17:19:56.910Z,100.00
2023-04-28T17:22:23.381Z,100.00
2023-04-28T17:24:49.846Z,100.00
2023-04-28T17:27:16.250Z,100.00
2023-04-28T17:29:43.526Z,100.00
2023-04-28T17:32:10.906Z,100.00
2023-04-28T17:34:37.492Z,100.00
2023-04-28T17:37:04.040Z,100.00
2023-04-28T17:39:30.536Z,100.00
2023-04-28T17:41:58.564Z,100.00
2023-04-28T17:44:25.393Z,100.00
2023-04-28T17:46:51.920Z,100.00
2023-04-28T17:49:18.750Z,100.00
2023-04-28T17:51:45.194Z,100.00
2023-04-28T17:54:11.768Z,100.00
2023-04-28T17:56:39.048Z,100.00
2023-04-28T17:59:06.089Z,100.00
2023-04-28T18:01:36.422Z,100.00
2023-04-28T18:04:02.957Z,100.00
2023-04-28T18:06:29.867Z,100.00
2023-04-28T18:08:56.365Z,100.00
2023-04-28T18:11:23.337Z,100.00
2023-04-28T18:13:50.022Z,100.00
2023-04-28T18:16:16.534Z,100.00
2023-04-28T18:18:43.177Z,100.00
2023-04-28T18:21:09.692Z,100.00
2023-04-28T18:23:36.127Z,100.00
2023-04-28T18:26:02.941Z,100.00
2023-04-28T18:28:29.589Z,100.00
2023-04-28T18:30:56.061Z,100.00
2023-04-28T18:33:25.830Z,100.00
2023-04-28T18:36:05.204Z,100.00
2023-04-28T18:38:34.511Z,100.00
2023-04-28T18:41:02.284Z,100.00
2023-04-28T18:43:29.426Z,100.00
2023-04-28T18:45:56.030Z,100.00
2023-04-28T18:48:22.778Z,100.00
2023-04-28T18:50:49.787Z,100.00
2023-04-28T18:53:17.562Z,100.00
2023-04-28T18:55:44.012Z,100.00
2023-04-28T18:58:10.770Z,100.00
2023-04-28T19:00:37.403Z,100.00
2023-04-28T19:03:04.353Z,100.00
2023-04-28T19:05:31.023Z,100.00
2023-04-28T19:07:57.503Z,100.00
2023-04-28T19:10:24.016Z,100.00
2023-04-28T19:12:50.447Z,100.00
2023-04-28T19:15:17.259Z,100.00
2023-04-28T19:17:44.415Z,100.00
2023-04-28T19:20:11.494Z,100.00
2023-04-28T19:22:41.227Z,100.00
2023-04-28T19:25:09.194Z,100.00
2023-04-28T19:27:38.352Z,100.00
2023-04-28T19:30:06.771Z,100.00
2023-04-28T19:32:33.925Z,100.00
2023-04-28T19:35:01.047Z,100.00
2023-04-28T19:37:27.888Z,100.00
2023-04-28T19:39:54.307Z,100.00
2023-04-28T19:42:20.965Z,100.00
2023-04-28T19:44:48.721Z,100.00
2023-04-28T19:47:23.934Z,100.00
2023-04-28T19:49:51.755Z,100.00
2023-04-28T19:52:20.868Z,100.00
2023-04-28T19:54:48.619Z,100.00
2023-04-28T19:57:16.281Z,100.00
2023-04-28T19:59:42.921Z,100.00
2023-04-28T20:02:10.097Z,100.00
2023-04-28T20:04:38.091Z,100.00
2023-04-28T20:07:05.826Z,100.00
2023-04-28T20:09:36.330Z,100.00
2023-04-28T20:12:04.260Z,100.00
2023-04-28T20:14:30.890Z,100.00
2023-04-28T20:16:57.860Z,100.00
2023-04-28T20:19:25.183Z,100.00
2023-04-28T20:21:51.676Z,100.00
2023-04-28T20:24:18.135Z,100.00
2023-04-28T20:26:44.617Z,100.00
2023-04-28T20:29:11.086Z,100.00
2023-04-28T20:31:37.627Z,100.00
2023-04-28T20:34:04.740Z,100.00
2023-04-28T20:36:33.609Z,100.00
2023-04-28T20:39:00.115Z,100.00
2023-04-28T20:41:26.675Z,100.00
2023-04-28T20:43:54.425Z,100.00
2023-04-28T20:46:21.373Z,100.00
2023-04-28T20:48:47.992Z,100.00
2023-04-28T20:51:14.597Z,100.00
2023-04-28T20:53:41.276Z,100.00
2023-04-28T20:56:08.384Z,100.00
2023-04-28T20:58:35.352Z,100.00
2023-04-28T21:01:02.354Z,100.00
2023-04-28T21:03:30.531Z,100.00
2023-04-28T21:05:57.211Z,100.00
2023-04-28T21:08:23.707Z,100.00
2023-04-28T21:10:50.299Z,100.00
2023-04-28T21:13:16.756Z,100.00
2023-04-28T21:15:43.270Z,100.00
2023-04-28T21:18:09.903Z,100.00
2023-04-28T21:20:36.446Z,100.00
2023-04-28T21:23:03.077Z,100.00
2023-04-28T21:25:29.645Z,100.00
2023-04-28T21:27:56.376Z,100.00
2023-04-28T21:30:23.016Z,100.00
2023-04-28T21:32:49.628Z,100.00
2023-04-28T21:35:18.986Z,100.00
2023-04-28T21:37:45.636Z,100.00
2023-04-28T21:40:12.219Z,100.00
2023-04-28T21:42:38.708Z,100.00
2023-04-28T21:45:07.398Z,100.00
2023-04-28T21:47:34.024Z,100.00
2023-04-28T21:50:00.599Z,100.00
2023-04-28T21:52:27.069Z,100.00
2023-04-28T21:54:53.884Z,100.00
2023-04-28T21:57:20.352Z,100.00
2023-04-28T21:59:47.484Z,100.00
2023-04-28T22:02:14.048Z,100.00
2023-04-28T22:04:40.886Z,100.00
2023-04-28T22:07:07.953Z,100.00
2023-04-28T22:09:34.458Z,100.00
2023-04-28T22:12:00.962Z,100.00
2023-04-28T22:14:40.230Z,100.00
2023-04-28T22:17:07.412Z,100.00
2023-04-28T22:19:34.099Z,100.00
2023-04-28T22:22:00.657Z,100.00
2023-04-28T22:24:27.752Z,100.00
2023-04-28T22:26:54.980Z,100.00
2023-04-28T22:29:21.650Z,100.00
2023-04-28T22:31:48.253Z,100.00
2023-04-28T22:34:14.929Z,100.00
2023-04-28T22:36:41.651Z,100.00
2023-04-28T22:39:08.545Z,100.00
2023-04-28T22:41:34.961Z,100.00
2023-04-28T22:44:01.425Z,100.00
2023-04-28T22:46:28.768Z,100.00
2023-04-28T22:48:55.525Z,100.00
2023-04-28T22:51:22.212Z,100.00
2023-04-28T22:53:48.803Z,100.00
2023-04-28T22:56:15.893Z,100.00
2023-04-28T22:58:42.442Z,100.00
2023-04-28T23:01:09.570Z,100.00
2023-04-28T23:03:36.697Z,100.00
2023-04-28T23:06:03.260Z,100.00
2023-04-28T23:08:29.727Z,100.00
2023-04-28T23:10:58.826Z,100.00
2023-04-28T23:13:25.439Z,100.00
2023-04-28T23:15:51.984Z,100.00
2023-04-28T23:18:18.480Z,100.00
2023-04-28T23:20:48.683Z,100.00
2023-04-28T23:23:15.992Z,100.00
2023-04-28T23:25:45.320Z,100.00
2023-04-28T23:28:11.900Z,100.00
2023-04-28T23:30:38.431Z,100.00
2023-04-28T23:33:05.217Z,100.00
2023-04-28T23:35:33.084Z,100.00
2023-04-28T23:37:59.647Z,100.00
2023-04-28T23:40:26.938Z,100.00
2023-04-28T23:42:54.349Z,100.00
2023-04-28T23:45:20.813Z,100.00
2023-04-28T23:47:47.854Z,100.00
2023-04-28T23:50:14.484Z,100.00
2023-04-28T23:52:41.161Z,100.00
2023-04-28T23:55:09.788Z,100.00
2023-04-28T23:57:37.251Z,100.00
